createdAt,value
2022-11-12T00:04:10.259Z,4.12
2022-11-12T00:09:30.319Z,4.41
2022-11-12T00:14:50.729Z,4.41
2022-11-12T00:20:11.918Z,4.02
2022-11-12T00:25:32.420Z,4.00
2022-11-12T00:30:52.770Z,3.98
2022-11-12T00:36:13.292Z,4.19
2022-11-12T00:41:33.359Z,4.32
2022-11-12T00:46:53.650Z,4.18
2022-11-12T00:52:13.960Z,3.99
2022-11-12T00:57:34.340Z,3.88
2022-11-12T01:02:55.414Z,3.80
2022-11-12T01:08:16.320Z,3.86
2022-11-12T01:13:42.863Z,3.84
2022-11-12T01:19:07.757Z,3.89
2022-11-12T01:24:27.915Z,3.89
2022-11-12T01:29:48.273Z,3.88
2022-11-12T01:35:08.837Z,3.78
2022-11-12T01:40:29.142Z,3.87
2022-11-12T01:45:51.148Z,3.85
2022-11-12T01:51:12.280Z,3.84
2022-11-12T01:56:32.939Z,3.76
2022-11-12T02:01:53.266Z,3.72
2022-11-12T02:07:13.685Z,3.98
2022-11-12T02:12:53.074Z,3.98
2022-11-12T02:18:13.352Z,3.95
2022-11-12T02:23:33.828Z,3.82
2022-11-12T02:28:54.202Z,3.71
2022-11-12T02:34:14.492Z,3.72
2022-11-12T02:39:35.037Z,3.79
2022-11-12T02:44:55.200Z,3.96
2022-11-12T02:50:15.772Z,4.05
2022-11-12T02:55:35.818Z,3.92
2022-11-12T03:00:56.993Z,3.85
2022-11-12T03:06:17.389Z,3.70
2022-11-12T03:11:37.585Z,3.58
2022-11-12T03:16:57.947Z,3.56
2022-11-12T03:22:18.428Z,3.39
2022-11-12T03:27:38.618Z,3.30
2022-11-12T03:32:58.930Z,3.26
2022-11-12T03:38:19.258Z,3.46
2022-11-12T03:43:39.765Z,3.47
2022-11-12T03:49:02.037Z,3.36
2022-11-12T03:54:22.427Z,3.62
2022-11-12T03:59:42.612Z,3.85
2022-11-12T04:05:21.998Z,3.54
2022-11-12T04:10:42.535Z,3.59
2022-11-12T04:16:29.534Z,3.57
2022-11-12T04:21:51.439Z,3.60
2022-11-12T04:27:15.788Z,3.57
2022-11-12T04:32:55.430Z,3.36
2022-11-12T04:38:15.317Z,3.38
2022-11-12T04:43:54.116Z,3.26
2022-11-12T04:49:14.739Z,3.13
2022-11-12T04:54:35.108Z,3.15
2022-11-12T04:59:55.224Z,3.20
2022-11-12T05:05:15.588Z,2.99
2022-11-12T05:10:35.887Z,2.99
2022-11-12T05:15:56.268Z,2.75
2022-11-12T05:21:39.236Z,2.69
2022-11-12T05:27:03.206Z,2.73
2022-11-12T05:32:23.557Z,2.57
2022-11-12T05:37:44.121Z,2.60
2022-11-12T05:43:04.585Z,2.45
2022-11-12T05:48:24.950Z,2.35
2022-11-12T05:53:45.297Z,2.55
2022-11-12T05:59:07.447Z,2.59
2022-11-12T06:04:27.880Z,2.56
2022-11-12T06:09:47.959Z,2.55
2022-11-12T06:15:08.388Z,2.53
2022-11-12T06:20:28.351Z,2.56
2022-11-12T06:25:48.590Z,2.42
2022-11-12T06:31:09.060Z,2.12
2022-11-12T06:36:29.310Z,1.99
2022-11-12T06:41:49.759Z,2.05
2022-11-12T06:47:10.912Z,2.05
2022-11-12T06:52:30.911Z,2.03
2022-11-12T06:57:54.265Z,2.27
2022-11-12T07:03:15.084Z,2.40
2022-11-12T07:08:36.723Z,2.19
2022-11-12T07:13:56.929Z,2.27
2022-11-12T07:19:17.318Z,2.50
2022-11-12T07:24:37.560Z,2.62
2022-11-12T07:29:58.254Z,2.69
2022-11-12T07:35:18.201Z,2.78
2022-11-12T07:40:38.586Z,2.92
2022-11-12T07:46:10.741Z,3.12
2022-11-12T07:51:31.417Z,3.47
2022-11-12T07:56:52.322Z,3.34
2022-11-12T08:02:12.274Z,3.53
2022-11-12T08:07:32.724Z,3.71
2022-11-12T08:12:56.340Z,3.90
2022-11-12T08:18:17.719Z,3.85
2022-11-12T08:23:37.979Z,4.07
2022-11-12T08:28:58.330Z,4.06
2022-11-12T08:34:22.550Z,3.99
2022-11-12T08:39:42.920Z,4.20
2022-11-12T08:45:03.335Z,4.36
2022-11-12T08:50:23.636Z,4.54
2022-11-12T08:55:44.601Z,4.75
2022-11-12T09:01:09.462Z,5.17
2022-11-12T09:06:29.509Z,5.29
2022-11-12T09:11:49.931Z,5.72
2022-11-12T09:17:12.061Z,6.07
2022-11-12T09:22:33.559Z,5.89
2022-11-12T09:27:54.512Z,6.47
2022-11-12T09:33:19.416Z,6.69
2022-11-12T09:38:40.342Z,6.43
2022-11-12T09:44:04.688Z,6.61
2022-11-12T09:49:32.650Z,6.86
2022-11-12T09:55:06.360Z,7.27
2022-11-12T10:00:27.127Z,7.43
2022-11-12T10:05:47.393Z,7.43
2022-11-12T10:11:13.880Z,7.60
2022-11-12T10:16:43.400Z,7.59
2022-11-12T10:22:34.350Z,7.93
2022-11-12T10:27:56.210Z,7.90
2022-11-12T10:33:16.757Z,8.18
2022-11-12T10:38:38.451Z,9.02
2022-11-12T10:44:03.851Z,10.22
2022-11-12T10:49:25.383Z,11.62
2022-11-12T10:54:52.331Z,12.41
2022-11-12T11:00:20.726Z,13.00
2022-11-12T11:05:54.800Z,14.54
2022-11-12T11:11:31.498Z,15.44
2022-11-12T11:17:08.788Z,15.74
2022-11-12T11:22:42.077Z,15.78
2022-11-12T11:28:16.308Z,15.78
2022-11-12T11:33:58.833Z,14.72
2022-11-12T11:39:51.240Z,13.65
2022-11-12T11:45:18.276Z,13.49
2022-11-12T11:50:57.666Z,13.81
2022-11-12T11:56:27.351Z,14.42
2022-11-12T12:02:25.560Z,15.25
2022-11-12T12:08:04.711Z,13.98
2022-11-12T12:14:01.739Z,13.23
2022-11-12T12:19:38.152Z,12.87
2022-11-12T12:25:24.968Z,12.47
2022-11-12T12:30:49.460Z,12.08
2022-11-12T12:36:15.614Z,12.26
2022-11-12T12:41:55.364Z,12.06
2022-11-12T12:47:18.918Z,11.97
2022-11-12T12:53:02.310Z,11.73
2022-11-12T12:58:40.951Z,11.74
2022-11-12T13:04:08.613Z,11.99
2022-11-12T13:09:29.149Z,11.80
2022-11-12T13:15:09.917Z,11.91
2022-11-12T13:20:35.790Z,11.75
2022-11-12T13:26:34.435Z,11.80
2022-11-12T13:32:34.041Z,11.66
2022-11-12T13:38:03.451Z,11.70
2022-11-12T13:43:42.754Z,11.48
2022-11-12T13:49:10.337Z,11.62
2022-11-12T13:54:32.686Z,11.71
2022-11-12T14:00:28.948Z,11.26
2022-11-12T14:05:50.921Z,11.29
2022-11-12T14:11:26.356Z,11.05
2022-11-12T14:17:18.132Z,10.76
2022-11-12T14:22:46.620Z,10.85
2022-11-12T14:28:25.756Z,10.60
2022-11-12T14:33:46.342Z,10.79
2022-11-12T14:39:07.318Z,10.39
2022-11-12T14:44:36.630Z,10.47
2022-11-12T14:49:57.856Z,9.85
2022-11-12T14:55:25.022Z,10.04
2022-11-12T15:00:47.683Z,9.47
2022-11-12T15:06:11.159Z,9.73
2022-11-12T15:11:45.044Z,9.30
2022-11-12T15:17:06.085Z,9.11
2022-11-12T15:22:26.474Z,9.06
2022-11-12T15:27:46.645Z,8.48
2022-11-12T15:33:27.311Z,8.48
2022-11-12T15:38:53.609Z,8.31
2022-11-12T15:44:14.068Z,8.15
2022-11-12T15:49:35.183Z,8.07
2022-11-12T15:54:55.530Z,7.72
2022-11-12T16:00:45.116Z,7.83
2022-11-12T16:06:09.009Z,7.63
2022-11-12T16:11:35.610Z,7.40
2022-11-12T16:16:56.826Z,7.28
2022-11-12T16:22:17.204Z,7.23
2022-11-12T16:27:39.346Z,7.04
2022-11-12T16:33:01.239Z,6.87
2022-11-12T16:38:21.780Z,6.48
2022-11-12T16:43:41.930Z,6.60
2022-11-12T16:49:03.348Z,6.60
2022-11-12T16:54:23.819Z,6.55
2022-11-12T16:59:45.133Z,6.25
2022-11-12T17:05:07.826Z,6.35
2022-11-12T17:10:27.855Z,6.38
2022-11-12T17:15:48.192Z,5.98
2022-11-12T17:21:14.639Z,5.92
2022-11-12T17:26:35.001Z,6.02
2022-11-12T17:31:55.236Z,5.76
2022-11-12T17:37:15.708Z,5.71
2022-11-12T17:42:35.886Z,5.43
2022-11-12T17:47:56.134Z,5.73
2022-11-12T17:53:16.965Z,5.44
2022-11-12T17:58:37.973Z,5.18
2022-11-12T18:03:58.757Z,5.11
2022-11-12T18:09:18.665Z,5.38
2022-11-12T18:14:39.223Z,5.13
2022-11-12T18:19:59.125Z,5.44
2022-11-12T18:25:19.221Z,5.39
2022-11-12T18:30:39.686Z,5.21
2022-11-12T18:36:04.484Z,5.21
2022-11-12T18:41:26.998Z,4.66
2022-11-12T18:46:47.315Z,4.80
2022-11-12T18:52:07.525Z,4.99
2022-11-12T18:57:27.817Z,4.93
2022-11-12T19:02:48.010Z,4.69
2022-11-12T19:08:08.539Z,4.32
2022-11-12T19:13:29.543Z,4.15
2022-11-12T19:18:51.202Z,4.45
2022-11-12T19:24:11.190Z,4.53
2022-11-12T19:29:31.997Z,4.48
2022-11-12T19:34:52.205Z,4.19
2022-11-12T19:40:12.714Z,4.06
2022-11-12T19:45:32.976Z,4.09
2022-11-12T19:50:53.573Z,3.86
2022-11-12T19:56:17.186Z,3.97
2022-11-12T20:01:37.672Z,3.87
2022-11-12T20:06:57.959Z,3.92
2022-11-12T20:12:18.218Z,3.95
2022-11-12T20:17:39.153Z,3.59
2022-11-12T20:22:59.469Z,3.54
2022-11-12T20:28:19.828Z,3.41
2022-11-12T20:33:42.625Z,3.70
2022-11-12T20:39:04.506Z,3.49
2022-11-12T20:44:24.729Z,3.44
2022-11-12T20:49:45.023Z,3.38
2022-11-12T20:55:05.350Z,3.20
2022-11-12T21:00:25.443Z,3.39
2022-11-12T21:05:45.609Z,3.19
2022-11-12T21:11:08.415Z,3.17
2022-11-12T21:16:29.082Z,2.83
2022-11-12T21:21:49.226Z,3.14
2022-11-12T21:27:11.427Z,3.04
2022-11-12T21:32:31.679Z,2.69
2022-11-12T21:37:52.087Z,2.68
2022-11-12T21:43:12.420Z,2.77
2022-11-12T21:48:32.804Z,2.59
2022-11-12T21:54:05.428Z,2.23
2022-11-12T21:59:25.354Z,2.43
2022-11-12T22:04:45.750Z,2.80
2022-11-12T22:10:06.792Z,2.63
2022-11-12T22:15:27.346Z,2.37
2022-11-12T22:21:03.619Z,2.26
2022-11-12T22:26:26.661Z,2.09
2022-11-12T22:31:46.847Z,2.14
2022-11-12T22:37:06.979Z,1.89
2022-11-12T22:42:27.266Z,1.85
2022-11-12T22:47:47.484Z,1.79
2022-11-12T22:53:07.727Z,1.99
2022-11-12T22:58:28.185Z,2.02
2022-11-12T23:03:49.699Z,2.12
2022-11-12T23:09:16.074Z,1.94
2022-11-12T23:14:36.151Z,1.74
2022-11-12T23:19:56.408Z,1.81
2022-11-12T23:25:16.734Z,1.58
2022-11-12T23:30:37.488Z,1.59
2022-11-12T23:36:08.756Z,1.81
2022-11-12T23:41:28.966Z,1.71
2022-11-12T23:46:49.230Z,1.67
2022-11-12T23:52:09.508Z,1.55
2022-11-12T23:57:29.970Z,1.61
